Columbia Regional Airport Columbia US
ICAO: KCOU
IATA: COU
Category: Medium
Scheduled Services: Yes

Elevation: 889 ft
TransAlt. 18000 ft.

Airport Communications:
MIZZU APP/DEP:124.375
ATIS:128.45
CTAF:119.3
GND:121.6
RDO:122.2
TWR:119.3
UNICOM:122.95

KCOU Zoom In..

If you have problems with the map follow the link
https://www.worldairports.se/pages/airport.php?
ICAO=KCOU

Runways:

(A) RW 02 length 6501 ft width 150 ft
ILS 110.70 / hdg 18

(B) RW 13 length 4401 ft width 75 ft
---- / hdg 132

(C) RW 20 length 6501 ft width 150 ft
---- / hdg 198

(D) RW 31 length 4401 ft width 75 ft
---- / hdg 312

Location; KCOU
Day. 19 / Time. 01.54 Zulu
* Altimeter: 30.28
* Temperature: -02° c. -28.4°f.
* Wind from: 290° Speed 17 kn with Gusts up to 25 kn.
Dewpoint: -11° c.
Visibility: 10 Statute Miles.
Clouds: Clear (automated report).

KCOU 190154Z 29017G25KT 10SM CLR M02/M11 A3028 RMK AO2 PK WND 29035/0126 SLP259 T10221111


Wind From 290°
Speed 17 kn.

 
 
jpsmedia worldairports.se 2020   terms of use